sensor_id;sensor_type;location;lat;lon;timestamp;P1;durP1;ratioP1;P2;durP2;ratioP2
44564;SDS011;30275;51.822;-0.326;2022-09-02T00:00:41;3.05;;;2.13;;
44564;SDS011;30275;51.822;-0.326;2022-09-02T00:03:12;5.22;;;2.17;;
44564;SDS011;30275;51.822;-0.326;2022-09-02T00:05:38;4.55;;;2.50;;
44564;SDS011;30275;51.822;-0.326;2022-09-02T00:08:04;4.22;;;2.05;;
44564;SDS011;30275;51.822;-0.326;2022-09-02T00:10:31;4.20;;;2.22;;
44564;SDS011;30275;51.822;-0.326;2022-09-02T00:12:59;2.55;;;1.85;;
44564;SDS011;30275;51.822;-0.326;2022-09-02T00:15:25;3.85;;;1.80;;
44564;SDS011;30275;51.822;-0.326;2022-09-02T00:17:51;4.25;;;2.45;;
44564;SDS011;30275;51.822;-0.326;2022-09-02T00:20:17;4.90;;;1.70;;
44564;SDS011;30275;51.822;-0.326;2022-09-02T00:22:42;4.60;;;1.77;;
44564;SDS011;30275;51.822;-0.326;2022-09-02T00:25:08;2.80;;;1.90;;
44564;SDS011;30275;51.822;-0.326;2022-09-02T00:27:35;3.28;;;1.88;;
44564;SDS011;30275;51.822;-0.326;2022-09-02T00:30:00;2.15;;;1.70;;
44564;SDS011;30275;51.822;-0.326;2022-09-02T00:32:27;3.17;;;1.75;;
44564;SDS011;30275;51.822;-0.326;2022-09-02T00:34:53;8.80;;;2.33;;
44564;SDS011;30275;51.822;-0.326;2022-09-02T00:37:23;4.78;;;1.92;;
44564;SDS011;30275;51.822;-0.326;2022-09-02T00:39:50;5.00;;;2.00;;
44564;SDS011;30275;51.822;-0.326;2022-09-02T00:42:17;5.57;;;2.17;;
44564;SDS011;30275;51.822;-0.326;2022-09-02T00:44:44;3.10;;;1.88;;
44564;SDS011;30275;51.822;-0.326;2022-09-02T00:47:10;4.72;;;2.20;;
44564;SDS011;30275;51.822;-0.326;2022-09-02T00:49:37;9.20;;;2.58;;
44564;SDS011;30275;51.822;-0.326;2022-09-02T00:52:08;5.43;;;2.60;;
44564;SDS011;30275;51.822;-0.326;2022-09-02T00:54:38;6.23;;;2.20;;
44564;SDS011;30275;51.822;-0.326;2022-09-02T00:59:45;5.10;;;2.63;;
44564;SDS011;30275;51.822;-0.326;2022-09-02T01:02:13;3.42;;;2.13;;
44564;SDS011;30275;51.822;-0.326;2022-09-02T01:04:39;4.05;;;2.30;;
44564;SDS011;30275;51.822;-0.326;2022-09-02T01:07:07;6.20;;;2.20;;
44564;SDS011;30275;51.822;-0.326;2022-09-02T01:09:34;3.00;;;2.30;;
44564;SDS011;30275;51.822;-0.326;2022-09-02T01:12:00;3.92;;;2.45;;
44564;SDS011;30275;51.822;-0.326;2022-09-02T01:14:27;5.72;;;3.05;;
44564;SDS011;30275;51.822;-0.326;2022-09-02T01:16:55;6.43;;;3.67;;
44564;SDS011;30275;51.822;-0.326;2022-09-02T01:19:28;5.15;;;2.78;;
44564;SDS011;30275;51.822;-0.326;2022-09-02T01:22:19;4.10;;;2.90;;
44564;SDS011;30275;51.822;-0.326;2022-09-02T01:24:47;5.28;;;2.78;;
44564;SDS011;30275;51.822;-0.326;2022-09-02T01:27:14;7.32;;;3.85;;
44564;SDS011;30275;51.822;-0.326;2022-09-02T01:29:42;5.72;;;3.05;;
44564;SDS011;30275;51.822;-0.326;2022-09-02T01:32:09;8.35;;;3.83;;
44564;SDS011;30275;51.822;-0.326;2022-09-02T01:34:35;3.90;;;2.75;;
44564;SDS011;30275;51.822;-0.326;2022-09-02T01:37:01;6.32;;;2.95;;
44564;SDS011;30275;51.822;-0.326;2022-09-02T01:39:26;8.05;;;3.60;;
44564;SDS011;30275;51.822;-0.326;2022-09-02T01:41:52;5.75;;;3.28;;
44564;SDS011;30275;51.822;-0.326;2022-09-02T01:44:18;7.50;;;3.83;;
44564;SDS011;30275;51.822;-0.326;2022-09-02T01:46:46;6.32;;;2.97;;
44564;SDS011;30275;51.822;-0.326;2022-09-02T01:49:14;5.07;;;2.93;;
44564;SDS011;30275;51.822;-0.326;2022-09-02T01:51:40;5.60;;;3.00;;
44564;SDS011;30275;51.822;-0.326;2022-09-02T01:54:06;8.10;;;2.72;;
44564;SDS011;30275;51.822;-0.326;2022-09-02T01:56:32;5.88;;;3.10;;
44564;SDS011;30275;51.822;-0.326;2022-09-02T01:58:57;8.52;;;3.47;;
44564;SDS011;30275;51.822;-0.326;2022-09-02T02:01:23;8.15;;;3.42;;
44564;SDS011;30275;51.822;-0.326;2022-09-02T02:03:49;4.00;;;2.70;;
44564;SDS011;30275;51.822;-0.326;2022-09-02T02:06:16;6.22;;;3.15;;
44564;SDS011;30275;51.822;-0.326;2022-09-02T02:08:42;4.95;;;3.05;;
44564;SDS011;30275;51.822;-0.326;2022-09-02T02:11:08;5.63;;;3.13;;
44564;SDS011;30275;51.822;-0.326;2022-09-02T02:13:34;7.90;;;3.88;;
44564;SDS011;30275;51.822;-0.326;2022-09-02T02:16:01;7.25;;;3.08;;
44564;SDS011;30275;51.822;-0.326;2022-09-02T02:18:27;6.40;;;2.70;;
44564;SDS011;30275;51.822;-0.326;2022-09-02T02:20:53;5.40;;;2.10;;
44564;SDS011;30275;51.822;-0.326;2022-09-02T02:23:20;6.70;;;2.88;;
44564;SDS011;30275;51.822;-0.326;2022-09-02T02:25:47;8.38;;;3.30;;
44564;SDS011;30275;51.822;-0.326;2022-09-02T02:28:13;5.88;;;3.20;;
44564;SDS011;30275;51.822;-0.326;2022-09-02T02:30:38;5.05;;;2.88;;
44564;SDS011;30275;51.822;-0.326;2022-09-02T02:33:04;6.47;;;2.97;;
44564;SDS011;30275;51.822;-0.326;2022-09-02T02:35:30;7.10;;;3.92;;
44564;SDS011;30275;51.822;-0.326;2022-09-02T02:37:56;8.18;;;4.00;;
44564;SDS011;30275;51.822;-0.326;2022-09-02T02:40:22;4.07;;;2.72;;
44564;SDS011;30275;51.822;-0.326;2022-09-02T02:42:49;6.60;;;3.28;;
44564;SDS011;30275;51.822;-0.326;2022-09-02T02:45:20;5.53;;;3.10;;
44564;SDS011;30275;51.822;-0.326;2022-09-02T02:47:46;6.20;;;3.22;;
44564;SDS011;30275;51.822;-0.326;2022-09-02T02:50:13;8.15;;;3.63;;
44564;SDS011;30275;51.822;-0.326;2022-09-02T02:52:40;5.28;;;3.38;;
44564;SDS011;30275;51.822;-0.326;2022-09-02T02:55:07;7.82;;;3.90;;
44564;SDS011;30275;51.822;-0.326;2022-09-02T02:57:34;8.98;;;3.15;;
44564;SDS011;30275;51.822;-0.326;2022-09-02T03:00:25;7.90;;;3.67;;
44564;SDS011;30275;51.822;-0.326;2022-09-02T03:02:53;5.45;;;3.35;;
44564;SDS011;30275;51.822;-0.326;2022-09-02T03:05:20;3.25;;;2.83;;
44564;SDS011;30275;51.822;-0.326;2022-09-02T03:07:46;8.40;;;4.13;;
44564;SDS011;30275;51.822;-0.326;2022-09-02T03:10:12;7.38;;;3.72;;
44564;SDS011;30275;51.822;-0.326;2022-09-02T03:12:38;8.43;;;3.30;;
44564;SDS011;30275;51.822;-0.326;2022-09-02T03:15:06;7.63;;;3.42;;
44564;SDS011;30275;51.822;-0.326;2022-09-02T03:17:32;8.18;;;3.67;;
44564;SDS011;30275;51.822;-0.326;2022-09-02T03:19:59;6.50;;;3.83;;
44564;SDS011;30275;51.822;-0.326;2022-09-02T03:22:25;7.50;;;3.85;;
44564;SDS011;30275;51.822;-0.326;2022-09-02T03:24:51;7.47;;;4.18;;
44564;SDS011;30275;51.822;-0.326;2022-09-02T03:27:17;6.50;;;3.75;;
44564;SDS011;30275;51.822;-0.326;2022-09-02T03:29:43;8.50;;;4.22;;
44564;SDS011;30275;51.822;-0.326;2022-09-02T03:32:09;7.18;;;3.13;;
44564;SDS011;30275;51.822;-0.326;2022-09-02T03:34:35;7.53;;;3.58;;
44564;SDS011;30275;51.822;-0.326;2022-09-02T03:37:01;5.38;;;3.30;;
44564;SDS011;30275;51.822;-0.326;2022-09-02T03:39:27;7.95;;;3.45;;
44564;SDS011;30275;51.822;-0.326;2022-09-02T03:41:52;6.88;;;3.63;;
44564;SDS011;30275;51.822;-0.326;2022-09-02T03:44:21;5.60;;;3.00;;
44564;SDS011;30275;51.822;-0.326;2022-09-02T03:46:47;5.28;;;2.25;;
44564;SDS011;30275;51.822;-0.326;2022-09-02T03:49:12;8.10;;;3.22;;
44564;SDS011;30275;51.822;-0.326;2022-09-02T03:51:39;6.13;;;3.20;;
44564;SDS011;30275;51.822;-0.326;2022-09-02T03:54:06;4.18;;;2.67;;
44564;SDS011;30275;51.822;-0.326;2022-09-02T03:56:34;4.57;;;2.88;;
44564;SDS011;30275;51.822;-0.326;2022-09-02T03:59:00;4.60;;;2.95;;
44564;SDS011;30275;51.822;-0.326;2022-09-02T04:01:26;4.18;;;2.67;;
44564;SDS011;30275;51.822;-0.326;2022-09-02T04:03:52;7.97;;;3.33;;
44564;SDS011;30275;51.822;-0.326;2022-09-02T04:06:19;7.68;;;3.08;;
44564;SDS011;30275;51.822;-0.326;2022-09-02T04:08:48;7.55;;;3.17;;
44564;SDS011;30275;51.822;-0.326;2022-09-02T04:11:16;6.55;;;3.47;;
44564;SDS011;30275;51.822;-0.326;2022-09-02T04:13:45;7.93;;;3.17;;
44564;SDS011;30275;51.822;-0.326;2022-09-02T04:16:13;8.23;;;3.45;;
44564;SDS011;30275;51.822;-0.326;2022-09-02T04:18:44;5.70;;;3.83;;
44564;SDS011;30275;51.822;-0.326;2022-09-02T04:21:10;7.93;;;3.40;;
44564;SDS011;30275;51.822;-0.326;2022-09-02T04:23:37;4.90;;;3.00;;
44564;SDS011;30275;51.822;-0.326;2022-09-02T04:26:06;6.53;;;3.30;;
44564;SDS011;30275;51.822;-0.326;2022-09-02T04:28:35;7.20;;;3.35;;
44564;SDS011;30275;51.822;-0.326;2022-09-02T04:31:06;6.97;;;3.88;;
44564;SDS011;30275;51.822;-0.326;2022-09-02T04:33:33;6.25;;;3.55;;
44564;SDS011;30275;51.822;-0.326;2022-09-02T04:36:02;5.20;;;3.60;;
44564;SDS011;30275;51.822;-0.326;2022-09-02T04:38:33;5.72;;;3.60;;
44564;SDS011;30275;51.822;-0.326;2022-09-02T04:40:59;8.93;;;3.45;;
44564;SDS011;30275;51.822;-0.326;2022-09-02T04:43:25;6.75;;;3.45;;
44564;SDS011;30275;51.822;-0.326;2022-09-02T04:45:51;5.53;;;3.83;;
44564;SDS011;30275;51.822;-0.326;2022-09-02T04:48:17;6.47;;;3.28;;
44564;SDS011;30275;51.822;-0.326;2022-09-02T04:50:43;5.82;;;3.63;;
44564;SDS011;30275;51.822;-0.326;2022-09-02T04:53:10;6.00;;;3.50;;
44564;SDS011;30275;51.822;-0.326;2022-09-02T04:55:39;6.80;;;3.70;;
44564;SDS011;30275;51.822;-0.326;2022-09-02T04:58:06;5.82;;;3.97;;
44564;SDS011;30275;51.822;-0.326;2022-09-02T05:00:32;8.25;;;3.42;;
44564;SDS011;30275;51.822;-0.326;2022-09-02T05:02:58;7.18;;;3.67;;
44564;SDS011;30275;51.822;-0.326;2022-09-02T05:05:24;5.50;;;3.75;;
44564;SDS011;30275;51.822;-0.326;2022-09-02T05:07:50;6.63;;;3.35;;
44564;SDS011;30275;51.822;-0.326;2022-09-02T05:10:15;9.15;;;4.40;;
44564;SDS011;30275;51.822;-0.326;2022-09-02T05:12:41;10.85;;;4.03;;
44564;SDS011;30275;51.822;-0.326;2022-09-02T05:15:08;6.78;;;3.40;;
44564;SDS011;30275;51.822;-0.326;2022-09-02T05:17:36;9.35;;;4.00;;
44564;SDS011;30275;51.822;-0.326;2022-09-02T05:20:03;5.88;;;3.50;;
44564;SDS011;30275;51.822;-0.326;2022-09-02T05:22:30;12.13;;;3.90;;
44564;SDS011;30275;51.822;-0.326;2022-09-02T05:24:56;5.95;;;3.70;;
44564;SDS011;30275;51.822;-0.326;2022-09-02T05:27:22;10.10;;;4.38;;
44564;SDS011;30275;51.822;-0.326;2022-09-02T05:29:49;9.48;;;3.83;;
44564;SDS011;30275;51.822;-0.326;2022-09-02T05:32:14;9.57;;;4.60;;
44564;SDS011;30275;51.822;-0.326;2022-09-02T05:34:40;7.10;;;3.85;;
44564;SDS011;30275;51.822;-0.326;2022-09-02T05:37:06;4.47;;;3.25;;
44564;SDS011;30275;51.822;-0.326;2022-09-02T05:39:33;6.75;;;3.75;;
44564;SDS011;30275;51.822;-0.326;2022-09-02T05:41:59;4.95;;;3.80;;
44564;SDS011;30275;51.822;-0.326;2022-09-02T05:44:25;6.32;;;3.55;;
44564;SDS011;30275;51.822;-0.326;2022-09-02T05:46:53;6.82;;;3.22;;
44564;SDS011;30275;51.822;-0.326;2022-09-02T05:49:19;6.43;;;4.35;;
44564;SDS011;30275;51.822;-0.326;2022-09-02T05:51:47;6.30;;;3.58;;
44564;SDS011;30275;51.822;-0.326;2022-09-02T05:56:49;5.57;;;3.70;;
44564;SDS011;30275;51.822;-0.326;2022-09-02T05:59:17;5.38;;;3.67;;
44564;SDS011;30275;51.822;-0.326;2022-09-02T06:01:45;8.70;;;3.83;;
44564;SDS011;30275;51.822;-0.326;2022-09-02T06:04:12;8.38;;;3.50;;
44564;SDS011;30275;51.822;-0.326;2022-09-02T06:06:39;5.97;;;3.60;;
44564;SDS011;30275;51.822;-0.326;2022-09-02T06:09:06;9.30;;;4.20;;
44564;SDS011;30275;51.822;-0.326;2022-09-02T06:11:34;6.78;;;3.85;;
44564;SDS011;30275;51.822;-0.326;2022-09-02T06:14:09;7.93;;;3.88;;
44564;SDS011;30275;51.822;-0.326;2022-09-02T06:16:38;5.85;;;3.60;;
44564;SDS011;30275;51.822;-0.326;2022-09-02T06:19:04;7.88;;;4.00;;
44564;SDS011;30275;51.822;-0.326;2022-09-02T06:21:31;6.60;;;3.72;;
44564;SDS011;30275;51.822;-0.326;2022-09-02T06:23:57;9.85;;;3.92;;
44564;SDS011;30275;51.822;-0.326;2022-09-02T06:26:23;5.03;;;3.38;;
44564;SDS011;30275;51.822;-0.326;2022-09-02T06:28:49;6.30;;;3.40;;
44564;SDS011;30275;51.822;-0.326;2022-09-02T06:31:16;4.18;;;3.03;;
44564;SDS011;30275;51.822;-0.326;2022-09-02T06:33:44;4.88;;;3.50;;
44564;SDS011;30275;51.822;-0.326;2022-09-02T06:36:12;5.05;;;3.38;;
44564;SDS011;30275;51.822;-0.326;2022-09-02T06:38:41;7.82;;;3.42;;
44564;SDS011;30275;51.822;-0.326;2022-09-02T06:41:16;8.07;;;3.50;;
44564;SDS011;30275;51.822;-0.326;2022-09-02T06:43:46;6.30;;;3.25;;
44564;SDS011;30275;51.822;-0.326;2022-09-02T06:46:13;8.77;;;3.55;;
44564;SDS011;30275;51.822;-0.326;2022-09-02T06:48:44;6.97;;;3.40;;
44564;SDS011;30275;51.822;-0.326;2022-09-02T06:51:21;5.60;;;3.22;;
44564;SDS011;30275;51.822;-0.326;2022-09-02T06:53:49;7.43;;;3.17;;
44564;SDS011;30275;51.822;-0.326;2022-09-02T06:56:15;8.98;;;3.40;;
44564;SDS011;30275;51.822;-0.326;2022-09-02T06:58:41;7.80;;;4.53;;
44564;SDS011;30275;51.822;-0.326;2022-09-02T07:01:07;5.20;;;2.97;;
44564;SDS011;30275;51.822;-0.326;2022-09-02T07:03:33;10.38;;;3.35;;
44564;SDS011;30275;51.822;-0.326;2022-09-02T07:06:17;9.15;;;3.20;;
44564;SDS011;30275;51.822;-0.326;2022-09-02T07:08:43;12.95;;;3.60;;
44564;SDS011;30275;51.822;-0.326;2022-09-02T07:11:20;11.00;;;3.30;;
44564;SDS011;30275;51.822;-0.326;2022-09-02T07:13:48;8.90;;;3.35;;
44564;SDS011;30275;51.822;-0.326;2022-09-02T07:16:14;7.13;;;3.80;;
44564;SDS011;30275;51.822;-0.326;2022-09-02T07:18:40;8.02;;;3.25;;
44564;SDS011;30275;51.822;-0.326;2022-09-02T07:21:08;10.82;;;2.78;;
44564;SDS011;30275;51.822;-0.326;2022-09-02T07:23:35;9.93;;;3.35;;
44564;SDS011;30275;51.822;-0.326;2022-09-02T07:26:01;13.90;;;3.30;;
44564;SDS011;30275;51.822;-0.326;2022-09-02T07:28:27;12.68;;;3.85;;
44564;SDS011;30275;51.822;-0.326;2022-09-02T07:30:52;9.45;;;2.80;;
44564;SDS011;30275;51.822;-0.326;2022-09-02T07:33:19;11.20;;;3.20;;
44564;SDS011;30275;51.822;-0.326;2022-09-02T07:35:46;10.30;;;2.90;;
44564;SDS011;30275;51.822;-0.326;2022-09-02T07:38:13;11.63;;;3.15;;
44564;SDS011;30275;51.822;-0.326;2022-09-02T07:40:39;8.20;;;2.30;;
44564;SDS011;30275;51.822;-0.326;2022-09-02T07:43:07;9.68;;;2.67;;
44564;SDS011;30275;51.822;-0.326;2022-09-02T07:45:35;10.55;;;2.97;;
44564;SDS011;30275;51.822;-0.326;2022-09-02T07:48:02;8.90;;;2.72;;
44564;SDS011;30275;51.822;-0.326;2022-09-02T07:50:31;9.98;;;2.97;;
44564;SDS011;30275;51.822;-0.326;2022-09-02T07:52:58;5.88;;;2.65;;
44564;SDS011;30275;51.822;-0.326;2022-09-02T07:55:24;4.97;;;2.20;;
44564;SDS011;30275;51.822;-0.326;2022-09-02T07:57:51;6.88;;;2.55;;
44564;SDS011;30275;51.822;-0.326;2022-09-02T08:00:20;9.45;;;3.78;;
44564;SDS011;30275;51.822;-0.326;2022-09-02T08:02:47;7.70;;;2.85;;
44564;SDS011;30275;51.822;-0.326;2022-09-02T08:05:14;12.23;;;2.75;;
44564;SDS011;30275;51.822;-0.326;2022-09-02T08:07:40;5.38;;;2.45;;
44564;SDS011;30275;51.822;-0.326;2022-09-02T08:10:06;6.88;;;2.63;;
44564;SDS011;30275;51.822;-0.326;2022-09-02T08:12:34;8.27;;;2.40;;
44564;SDS011;30275;51.822;-0.326;2022-09-02T08:15:01;7.22;;;2.47;;
44564;SDS011;30275;51.822;-0.326;2022-09-02T08:17:28;5.97;;;2.10;;
44564;SDS011;30275;51.822;-0.326;2022-09-02T08:19:53;7.45;;;2.47;;
44564;SDS011;30275;51.822;-0.326;2022-09-02T08:22:19;5.80;;;2.50;;
44564;SDS011;30275;51.822;-0.326;2022-09-02T08:24:45;9.05;;;2.75;;
44564;SDS011;30275;51.822;-0.326;2022-09-02T08:27:10;8.50;;;2.80;;
44564;SDS011;30275;51.822;-0.326;2022-09-02T08:29:36;6.03;;;2.38;;
44564;SDS011;30275;51.822;-0.326;2022-09-02T08:32:02;6.80;;;2.70;;
44564;SDS011;30275;51.822;-0.326;2022-09-02T08:34:30;7.80;;;2.63;;
44564;SDS011;30275;51.822;-0.326;2022-09-02T08:36:56;8.82;;;2.60;;
44564;SDS011;30275;51.822;-0.326;2022-09-02T08:39:22;8.70;;;2.83;;
44564;SDS011;30275;51.822;-0.326;2022-09-02T08:44:52;8.40;;;2.75;;
44564;SDS011;30275;51.822;-0.326;2022-09-02T08:47:25;5.53;;;2.00;;
44564;SDS011;30275;51.822;-0.326;2022-09-02T08:49:55;7.85;;;3.20;;
44564;SDS011;30275;51.822;-0.326;2022-09-02T08:55:06;6.40;;;2.00;;
44564;SDS011;30275;51.822;-0.326;2022-09-02T08:57:36;5.78;;;2.28;;
44564;SDS011;30275;51.822;-0.326;2022-09-02T09:00:02;5.93;;;2.60;;
44564;SDS011;30275;51.822;-0.326;2022-09-02T09:05:44;5.38;;;2.13;;
44564;SDS011;30275;51.822;-0.326;2022-09-02T09:16:08;4.40;;;1.88;;
44564;SDS011;30275;51.822;-0.326;2022-09-02T09:19:10;8.38;;;2.13;;
44564;SDS011;30275;51.822;-0.326;2022-09-02T09:21:38;6.93;;;2.28;;
44564;SDS011;30275;51.822;-0.326;2022-09-02T09:24:17;4.13;;;1.90;;
44564;SDS011;30275;51.822;-0.326;2022-09-02T09:26:44;14.30;;;2.55;;
44564;SDS011;30275;51.822;-0.326;2022-09-02T09:29:11;10.35;;;2.40;;
44564;SDS011;30275;51.822;-0.326;2022-09-02T09:31:37;4.88;;;2.22;;
44564;SDS011;30275;51.822;-0.326;2022-09-02T09:34:05;4.60;;;1.88;;
44564;SDS011;30275;51.822;-0.326;2022-09-02T09:36:52;6.50;;;1.75;;
44564;SDS011;30275;51.822;-0.326;2022-09-02T09:39:28;4.72;;;1.92;;
44564;SDS011;30275;51.822;-0.326;2022-09-02T09:41:59;6.80;;;2.33;;
44564;SDS011;30275;51.822;-0.326;2022-09-02T09:44:43;4.57;;;1.90;;
44564;SDS011;30275;51.822;-0.326;2022-09-02T09:49:47;5.55;;;1.70;;
44564;SDS011;30275;51.822;-0.326;2022-09-02T09:52:28;6.32;;;1.92;;
44564;SDS011;30275;51.822;-0.326;2022-09-02T09:55:05;4.05;;;1.92;;
44564;SDS011;30275;51.822;-0.326;2022-09-02T09:57:35;4.03;;;1.77;;
44564;SDS011;30275;51.822;-0.326;2022-09-02T10:00:09;7.72;;;1.80;;
44564;SDS011;30275;51.822;-0.326;2022-09-02T10:02:50;3.45;;;1.98;;
44564;SDS011;30275;51.822;-0.326;2022-09-02T10:07:54;3.58;;;1.92;;
44564;SDS011;30275;51.822;-0.326;2022-09-02T10:10:57;3.80;;;2.13;;
44564;SDS011;30275;51.822;-0.326;2022-09-02T10:13:29;5.60;;;2.35;;
44564;SDS011;30275;51.822;-0.326;2022-09-02T10:18:42;4.13;;;1.80;;
44564;SDS011;30275;51.822;-0.326;2022-09-02T10:21:41;8.18;;;2.40;;
44564;SDS011;30275;51.822;-0.326;2022-09-02T10:26:53;2.63;;;1.27;;
44564;SDS011;30275;51.822;-0.326;2022-09-02T10:40:16;3.30;;;1.65;;
44564;SDS011;30275;51.822;-0.326;2022-09-02T10:45:46;4.13;;;1.42;;
44564;SDS011;30275;51.822;-0.326;2022-09-02T10:48:26;2.35;;;1.52;;
44564;SDS011;30275;51.822;-0.326;2022-09-02T10:56:19;4.45;;;1.73;;
44564;SDS011;30275;51.822;-0.326;2022-09-02T11:01:37;2.58;;;1.73;;
44564;SDS011;30275;51.822;-0.326;2022-09-02T11:06:49;2.35;;;1.48;;
44564;SDS011;30275;51.822;-0.326;2022-09-02T11:12:10;2.60;;;1.42;;
44564;SDS011;30275;51.822;-0.326;2022-09-02T11:14:49;2.58;;;1.35;;
44564;SDS011;30275;51.822;-0.326;2022-09-02T11:26:10;4.20;;;1.50;;
44564;SDS011;30275;51.822;-0.326;2022-09-02T11:28:47;3.90;;;1.48;;
44564;SDS011;30275;51.822;-0.326;2022-09-02T11:34:31;1.98;;;1.25;;
44564;SDS011;30275;51.822;-0.326;2022-09-02T11:37:02;2.88;;;1.50;;
44564;SDS011;30275;51.822;-0.326;2022-09-02T11:55:39;1.77;;;1.20;;
44564;SDS011;30275;51.822;-0.326;2022-09-02T11:58:28;2.05;;;1.33;;
44564;SDS011;30275;51.822;-0.326;2022-09-02T12:03:51;3.60;;;1.17;;
44564;SDS011;30275;51.822;-0.326;2022-09-02T12:06:26;3.50;;;1.27;;
44564;SDS011;30275;51.822;-0.326;2022-09-02T12:11:40;2.65;;;1.30;;
44564;SDS011;30275;51.822;-0.326;2022-09-02T12:14:07;2.80;;;1.40;;
44564;SDS011;30275;51.822;-0.326;2022-09-02T12:16:42;3.22;;;1.38;;
44564;SDS011;30275;51.822;-0.326;2022-09-02T12:21:35;2.53;;;1.30;;
44564;SDS011;30275;51.822;-0.326;2022-09-02T12:24:21;1.52;;;1.30;;
44564;SDS011;30275;51.822;-0.326;2022-09-02T12:31:49;3.10;;;1.70;;
44564;SDS011;30275;51.822;-0.326;2022-09-02T12:36:55;2.55;;;1.42;;
44564;SDS011;30275;51.822;-0.326;2022-09-02T12:42:08;1.58;;;1.10;;
44564;SDS011;30275;51.822;-0.326;2022-09-02T12:55:12;2.72;;;1.27;;
44564;SDS011;30275;51.822;-0.326;2022-09-02T12:57:54;2.38;;;1.20;;
44564;SDS011;30275;51.822;-0.326;2022-09-02T13:16:43;1.50;;;1.08;;
44564;SDS011;30275;51.822;-0.326;2022-09-02T13:32:33;1.52;;;1.15;;
44564;SDS011;30275;51.822;-0.326;2022-09-02T13:35:04;1.20;;;1.10;;
44564;SDS011;30275;51.822;-0.326;2022-09-02T13:37:36;3.35;;;1.25;;
44564;SDS011;30275;51.822;-0.326;2022-09-02T13:40:18;2.30;;;1.27;;
44564;SDS011;30275;51.822;-0.326;2022-09-02T13:42:51;1.38;;;1.23;;
44564;SDS011;30275;51.822;-0.326;2022-09-02T13:45:22;1.65;;;1.00;;
44564;SDS011;30275;51.822;-0.326;2022-09-02T13:47:51;1.92;;;1.30;;
44564;SDS011;30275;51.822;-0.326;2022-09-02T13:50:20;2.17;;;1.20;;
44564;SDS011;30275;51.822;-0.326;2022-09-02T13:52:50;1.48;;;1.20;;
44564;SDS011;30275;51.822;-0.326;2022-09-02T13:55:19;1.63;;;1.33;;
44564;SDS011;30275;51.822;-0.326;2022-09-02T13:57:46;3.08;;;1.23;;
44564;SDS011;30275;51.822;-0.326;2022-09-02T14:00:27;3.28;;;1.05;;
44564;SDS011;30275;51.822;-0.326;2022-09-02T14:02:57;1.20;;;1.10;;
44564;SDS011;30275;51.822;-0.326;2022-09-02T14:05:32;2.15;;;1.30;;
44564;SDS011;30275;51.822;-0.326;2022-09-02T14:08:00;2.03;;;1.48;;
44564;SDS011;30275;51.822;-0.326;2022-09-02T14:10:30;1.20;;;1.10;;
44564;SDS011;30275;51.822;-0.326;2022-09-02T14:13:00;2.55;;;1.10;;
44564;SDS011;30275;51.822;-0.326;2022-09-02T14:15:30;2.38;;;1.20;;
44564;SDS011;30275;51.822;-0.326;2022-09-02T14:23:22;2.53;;;1.17;;
44564;SDS011;30275;51.822;-0.326;2022-09-02T14:26:08;1.98;;;1.20;;
44564;SDS011;30275;51.822;-0.326;2022-09-02T14:28:33;2.20;;;1.30;;
44564;SDS011;30275;51.822;-0.326;2022-09-02T14:31:04;1.25;;;0.98;;
44564;SDS011;30275;51.822;-0.326;2022-09-02T14:36:04;2.83;;;1.50;;
44564;SDS011;30275;51.822;-0.326;2022-09-02T14:46:31;2.28;;;1.00;;
44564;SDS011;30275;51.822;-0.326;2022-09-02T14:51:48;2.05;;;1.38;;
44564;SDS011;30275;51.822;-0.326;2022-09-02T14:57:01;1.30;;;0.98;;
44564;SDS011;30275;51.822;-0.326;2022-09-02T14:59:28;1.33;;;1.23;;
44564;SDS011;30275;51.822;-0.326;2022-09-02T15:01:54;1.85;;;1.17;;
44564;SDS011;30275;51.822;-0.326;2022-09-02T15:04:22;1.88;;;1.30;;
44564;SDS011;30275;51.822;-0.326;2022-09-02T15:06:48;1.30;;;1.15;;
44564;SDS011;30275;51.822;-0.326;2022-09-02T15:09:15;2.22;;;1.30;;
44564;SDS011;30275;51.822;-0.326;2022-09-02T15:11:47;1.20;;;1.10;;
44564;SDS011;30275;51.822;-0.326;2022-09-02T15:14:17;2.15;;;1.25;;
44564;SDS011;30275;51.822;-0.326;2022-09-02T15:16:42;2.65;;;1.38;;
44564;SDS011;30275;51.822;-0.326;2022-09-02T15:19:08;1.38;;;1.08;;
44564;SDS011;30275;51.822;-0.326;2022-09-02T15:21:34;1.98;;;1.30;;
44564;SDS011;30275;51.822;-0.326;2022-09-02T15:23:59;1.38;;;1.25;;
44564;SDS011;30275;51.822;-0.326;2022-09-02T15:26:25;1.73;;;1.10;;
44564;SDS011;30275;51.822;-0.326;2022-09-02T15:28:51;1.67;;;1.42;;
44564;SDS011;30275;51.822;-0.326;2022-09-02T15:31:16;2.05;;;1.27;;
44564;SDS011;30275;51.822;-0.326;2022-09-02T15:33:47;2.45;;;1.30;;
44564;SDS011;30275;51.822;-0.326;2022-09-02T15:36:13;2.15;;;1.10;;
44564;SDS011;30275;51.822;-0.326;2022-09-02T15:38:39;1.80;;;1.27;;
44564;SDS011;30275;51.822;-0.326;2022-09-02T15:41:15;2.03;;;1.27;;
44564;SDS011;30275;51.822;-0.326;2022-09-02T15:43:43;1.45;;;1.10;;
44564;SDS011;30275;51.822;-0.326;2022-09-02T15:46:21;1.02;;;0.95;;
44564;SDS011;30275;51.822;-0.326;2022-09-02T15:48:54;2.47;;;1.13;;
44564;SDS011;30275;51.822;-0.326;2022-09-02T15:51:22;1.40;;;1.27;;
44564;SDS011;30275;51.822;-0.326;2022-09-02T15:54:07;1.50;;;1.20;;
44564;SDS011;30275;51.822;-0.326;2022-09-02T15:56:36;1.23;;;1.00;;
44564;SDS011;30275;51.822;-0.326;2022-09-02T15:59:05;1.40;;;1.02;;
44564;SDS011;30275;51.822;-0.326;2022-09-02T16:01:36;3.33;;;1.20;;
44564;SDS011;30275;51.822;-0.326;2022-09-02T16:04:06;1.25;;;1.15;;
44564;SDS011;30275;51.822;-0.326;2022-09-02T16:06:33;1.80;;;1.38;;
44564;SDS011;30275;51.822;-0.326;2022-09-02T16:09:03;1.67;;;1.42;;
44564;SDS011;30275;51.822;-0.326;2022-09-02T16:11:30;2.03;;;1.50;;
44564;SDS011;30275;51.822;-0.326;2022-09-02T16:13:56;1.90;;;1.35;;
44564;SDS011;30275;51.822;-0.326;2022-09-02T16:16:22;1.52;;;1.30;;
44564;SDS011;30275;51.822;-0.326;2022-09-02T16:18:48;2.30;;;1.35;;
44564;SDS011;30275;51.822;-0.326;2022-09-02T16:21:15;1.20;;;1.10;;
44564;SDS011;30275;51.822;-0.326;2022-09-02T16:23:42;1.25;;;1.08;;
44564;SDS011;30275;51.822;-0.326;2022-09-02T16:28:45;1.90;;;1.33;;
44564;SDS011;30275;51.822;-0.326;2022-09-02T16:31:12;3.65;;;1.50;;
44564;SDS011;30275;51.822;-0.326;2022-09-02T16:33:41;2.20;;;1.77;;
44564;SDS011;30275;51.822;-0.326;2022-09-02T16:36:08;8.07;;;2.20;;
44564;SDS011;30275;51.822;-0.326;2022-09-02T16:38:34;7.28;;;2.30;;
44564;SDS011;30275;51.822;-0.326;2022-09-02T16:41:00;9.20;;;2.47;;
44564;SDS011;30275;51.822;-0.326;2022-09-02T16:43:29;7.22;;;2.17;;
44564;SDS011;30275;51.822;-0.326;2022-09-02T16:45:56;10.02;;;3.13;;
44564;SDS011;30275;51.822;-0.326;2022-09-02T16:48:28;8.30;;;3.08;;
44564;SDS011;30275;51.822;-0.326;2022-09-02T16:50:59;13.70;;;4.10;;
44564;SDS011;30275;51.822;-0.326;2022-09-02T16:53:27;24.88;;;5.38;;
44564;SDS011;30275;51.822;-0.326;2022-09-02T16:55:53;14.10;;;4.55;;
44564;SDS011;30275;51.822;-0.326;2022-09-02T16:58:18;12.63;;;4.50;;
44564;SDS011;30275;51.822;-0.326;2022-09-02T17:00:44;11.55;;;5.45;;
44564;SDS011;30275;51.822;-0.326;2022-09-02T17:03:10;17.20;;;4.90;;
44564;SDS011;30275;51.822;-0.326;2022-09-02T17:05:37;12.43;;;4.20;;
44564;SDS011;30275;51.822;-0.326;2022-09-02T17:08:03;9.85;;;5.10;;
44564;SDS011;30275;51.822;-0.326;2022-09-02T17:10:30;14.07;;;5.43;;
44564;SDS011;30275;51.822;-0.326;2022-09-02T17:12:57;12.93;;;5.13;;
44564;SDS011;30275;51.822;-0.326;2022-09-02T17:15:23;13.65;;;6.07;;
44564;SDS011;30275;51.822;-0.326;2022-09-02T17:17:50;13.82;;;6.57;;
44564;SDS011;30275;51.822;-0.326;2022-09-02T17:20:19;16.25;;;7.22;;
44564;SDS011;30275;51.822;-0.326;2022-09-02T17:22:45;14.80;;;7.07;;
44564;SDS011;30275;51.822;-0.326;2022-09-02T17:25:11;14.73;;;6.50;;
44564;SDS011;30275;51.822;-0.326;2022-09-02T17:27:36;14.80;;;7.25;;
44564;SDS011;30275;51.822;-0.326;2022-09-02T17:30:06;18.92;;;7.70;;
44564;SDS011;30275;51.822;-0.326;2022-09-02T17:32:32;15.27;;;7.60;;